createdAt,value
2022-11-03T00:01:47.714Z,97068.53
2022-11-03T00:04:16.305Z,97057.94
2022-11-03T00:06:44.253Z,97065.81
2022-11-03T00:09:12.563Z,97064.88
2022-11-03T00:11:40.716Z,97063.16
2022-11-03T00:14:09.472Z,97055.97
2022-11-03T00:16:37.008Z,97058.09
2022-11-03T00:19:03.976Z,97053.78
2022-11-03T00:21:30.911Z,97060.97
2022-11-03T00:23:57.767Z,97059.41
2022-11-03T00:26:26.928Z,97054.75
2022-11-03T00:28:57.999Z,97047.97
2022-11-03T00:31:27.617Z,97028.50
2022-11-03T00:33:55.126Z,97028.50
2022-11-03T00:36:24.136Z,97018.28
2022-11-03T00:38:50.975Z,97010.72
2022-11-03T00:41:18.549Z,97005.09
2022-11-03T00:43:45.152Z,97009.88
2022-11-03T00:46:11.722Z,97017.34
2022-11-03T00:48:38.362Z,97010.06
2022-11-03T00:51:22.769Z,97024.78
2022-11-03T00:53:53.665Z,97025.09
2022-11-03T00:56:25.537Z,97028.91
2022-11-03T00:58:53.160Z,97043.84
2022-11-03T01:01:29.314Z,97045.44
2022-11-03T01:04:16.107Z,97033.78
2022-11-03T01:06:52.642Z,97044.69
2022-11-03T01:09:25.471Z,97039.22
2022-11-03T01:11:59.767Z,97043.31
2022-11-03T01:14:29.174Z,97042.38
2022-11-03T01:16:56.097Z,97046.09
2022-11-03T01:19:23.760Z,97042.53
2022-11-03T01:21:50.337Z,97030.97
2022-11-03T01:24:16.923Z,97013.00
2022-11-03T01:26:43.470Z,96992.50
2022-11-03T01:29:10.115Z,96983.91
2022-11-03T01:31:36.668Z,96974.19
2022-11-03T01:34:03.313Z,96967.66
2022-11-03T01:36:29.988Z,96970.38
2022-11-03T01:38:56.937Z,96958.50
2022-11-03T01:41:27.211Z,96936.34
2022-11-03T01:44:08.788Z,96934.69
2022-11-03T01:46:41.210Z,96939.16
2022-11-03T01:49:20.404Z,96940.78
2022-11-03T01:51:52.333Z,96940.44
2022-11-03T01:54:21.730Z,96947.69
2022-11-03T01:56:49.046Z,96955.91
2022-11-03T01:59:17.493Z,96955.72
2022-11-03T02:01:45.549Z,96955.91
2022-11-03T02:04:25.068Z,96947.91
2022-11-03T02:06:59.113Z,96964.50
2022-11-03T02:09:25.935Z,96955.72
2022-11-03T02:12:07.734Z,96956.00
2022-11-03T02:14:37.152Z,96951.38
2022-11-03T02:17:08.616Z,96950.75
2022-11-03T02:20:01.207Z,96934.97
2022-11-03T02:22:58.275Z,96911.56
2022-11-03T02:25:42.463Z,96886.50
2022-11-03T02:28:09.544Z,96858.88
2022-11-03T02:30:48.259Z,96835.66
2022-11-03T02:33:31.369Z,96814.34
2022-11-03T02:36:12.687Z,96813.00
2022-11-03T02:38:47.599Z,96791.59
2022-11-03T02:41:16.258Z,96768.56
2022-11-03T02:43:44.657Z,96782.44
2022-11-03T02:46:13.608Z,96762.97
2022-11-03T02:48:40.234Z,96773.34
2022-11-03T02:51:06.789Z,96758.84
2022-11-03T02:53:39.585Z,96742.91
2022-11-03T02:56:14.203Z,96717.84
2022-11-03T02:58:53.624Z,96717.34
2022-11-03T03:01:27.160Z,96731.31
2022-11-03T03:04:00.322Z,96732.34
2022-11-03T03:06:34.924Z,96733.50
2022-11-03T03:09:05.536Z,96729.00
2022-11-03T03:11:39.898Z,96729.50
2022-11-03T03:14:12.250Z,96712.75
2022-11-03T03:17:07.128Z,96714.19
2022-11-03T03:20:07.788Z,96706.94
2022-11-03T03:22:40.129Z,96712.00
2022-11-03T03:25:15.068Z,96720.44
2022-11-03T03:27:50.249Z,96706.22
2022-11-03T03:30:18.626Z,96711.38
2022-11-03T03:32:48.995Z,96728.94
2022-11-03T03:35:20.451Z,96713.38
2022-11-03T03:37:50.998Z,96708.47
2022-11-03T03:40:24.786Z,96686.81
2022-11-03T03:42:51.933Z,96702.19
2022-11-03T03:45:19.758Z,96695.03
2022-11-03T03:47:47.473Z,96714.13
2022-11-03T03:50:14.185Z,96699.13
2022-11-03T03:52:40.976Z,96691.56
2022-11-03T03:55:15.916Z,96695.78
2022-11-03T03:57:43.231Z,96719.38
2022-11-03T04:00:14.119Z,96715.28
2022-11-03T04:02:40.663Z,96721.78
2022-11-03T04:05:07.444Z,96718.25
2022-11-03T04:07:48.923Z,96704.97
2022-11-03T04:10:17.080Z,96708.78
2022-11-03T04:13:03.414Z,96689.31
2022-11-03T04:15:49.150Z,96680.06
2022-11-03T04:18:34.969Z,96676.25
2022-11-03T04:21:20.038Z,96655.97
2022-11-03T04:23:46.596Z,96657.25
2022-11-03T04:26:16.265Z,96668.41
2022-11-03T04:28:44.203Z,96654.88
2022-11-03T04:31:12.797Z,96665.66
2022-11-03T04:33:41.744Z,96663.94
2022-11-03T04:36:17.269Z,96664.22
2022-11-03T04:38:44.416Z,96644.72
2022-11-03T04:41:25.894Z,96628.34
2022-11-03T04:43:52.983Z,96627.38
2022-11-03T04:46:28.960Z,96618.41
2022-11-03T04:48:59.417Z,96626.16
2022-11-03T04:51:29.876Z,96597.97
2022-11-03T04:54:02.092Z,96581.53
2022-11-03T04:56:29.377Z,96577.78
2022-11-03T04:58:58.029Z,96575.88
2022-11-03T05:01:25.422Z,96564.97
2022-11-03T05:03:54.617Z,96564.13
2022-11-03T05:06:21.186Z,96545.22
2022-11-03T05:08:53.745Z,96535.84
2022-11-03T05:11:34.858Z,96523.66
2022-11-03T05:14:14.796Z,96497.84
2022-11-03T05:16:41.791Z,96497.69
2022-11-03T05:19:18.204Z,96491.25
2022-11-03T05:21:45.477Z,96493.59
2022-11-03T05:27:00.325Z,96510.88
2022-11-03T05:29:36.981Z,96511.63
2022-11-03T05:32:12.473Z,96522.22
2022-11-03T05:34:49.884Z,96506.75
2022-11-03T05:37:33.919Z,96501.84
2022-11-03T05:40:14.571Z,96499.88
2022-11-03T05:42:45.304Z,96508.28
2022-11-03T05:45:23.088Z,96507.97
2022-11-03T05:47:52.929Z,96519.63
2022-11-03T05:50:25.371Z,96512.31
2022-11-03T05:53:31.199Z,96504.75
2022-11-03T05:56:03.657Z,96485.97
2022-11-03T05:58:42.299Z,96479.94
2022-11-03T06:01:32.649Z,96468.94
2022-11-03T06:04:30.025Z,96503.66
2022-11-03T06:07:02.053Z,96495.84
2022-11-03T06:09:31.393Z,96481.75
2022-11-03T06:12:01.098Z,96484.94
2022-11-03T06:14:31.299Z,96472.06
2022-11-03T06:17:07.281Z,96467.16
2022-11-03T06:19:43.273Z,96484.47
2022-11-03T06:22:16.070Z,96445.47
2022-11-03T06:24:43.668Z,96434.28
2022-11-03T06:27:16.368Z,96442.16
2022-11-03T06:29:47.501Z,96467.97
2022-11-03T06:32:14.330Z,96455.06
2022-11-03T06:34:46.257Z,96454.59
2022-11-03T06:37:21.902Z,96443.34
2022-11-03T06:39:49.472Z,96453.53
2022-11-03T06:42:19.558Z,96451.19
2022-11-03T06:44:48.736Z,96431.13
2022-11-03T06:47:23.820Z,96464.22
2022-11-03T06:49:52.947Z,96438.22
2022-11-03T06:52:37.811Z,96436.88
2022-11-03T06:55:10.849Z,96441.50
2022-11-03T06:57:43.307Z,96442.44
2022-11-03T07:00:34.225Z,96437.63
2022-11-03T07:03:21.226Z,96458.00
2022-11-03T07:05:47.890Z,96425.41
2022-11-03T07:08:27.641Z,96446.53
2022-11-03T07:11:01.702Z,96418.22
2022-11-03T07:13:31.549Z,96393.31
2022-11-03T07:15:58.374Z,96412.56
2022-11-03T07:18:35.686Z,96382.06
2022-11-03T07:21:23.885Z,96373.72
2022-11-03T07:23:50.780Z,96379.97
2022-11-03T07:26:18.104Z,96351.88
2022-11-03T07:28:44.758Z,96331.94
2022-11-03T07:31:22.666Z,96357.47
2022-11-03T07:33:49.726Z,96378.00
2022-11-03T07:36:22.364Z,96353.66
2022-11-03T07:38:52.661Z,96340.75
2022-11-03T07:41:34.287Z,96311.41
2022-11-03T07:44:02.165Z,96310.50
2022-11-03T07:46:29.121Z,96340.00
2022-11-03T07:48:58.451Z,96363.13
2022-11-03T07:51:30.568Z,96325.13
2022-11-03T07:54:02.406Z,96324.81
2022-11-03T07:56:35.352Z,96348.06
2022-11-03T07:59:13.233Z,96328.16
2022-11-03T08:01:45.215Z,96336.81
2022-11-03T08:04:17.857Z,96325.53
2022-11-03T08:06:44.473Z,96315.63
2022-11-03T08:09:11.077Z,96305.69
2022-11-03T08:11:37.655Z,96290.34
2022-11-03T08:14:04.299Z,96290.72
2022-11-03T08:16:30.905Z,96280.59
2022-11-03T08:18:57.498Z,96268.97
2022-11-03T08:21:24.202Z,96268.09
2022-11-03T08:23:51.367Z,96274.03
2022-11-03T08:26:18.175Z,96287.84
2022-11-03T08:28:44.780Z,96280.75
2022-11-03T08:31:13.180Z,96287.91
2022-11-03T08:33:40.733Z,96295.16
2022-11-03T08:36:08.774Z,96295.38
2022-11-03T08:38:35.492Z,96291.78
2022-11-03T08:41:02.313Z,96284.44
2022-11-03T08:43:28.878Z,96282.47
2022-11-03T08:45:55.912Z,96282.06
2022-11-03T08:48:23.686Z,96269.53
2022-11-03T08:50:50.599Z,96270.81
2022-11-03T08:53:17.259Z,96311.56
2022-11-03T08:55:43.849Z,96287.56
2022-11-03T08:58:10.626Z,96278.28
2022-11-03T09:00:40.926Z,96291.88
2022-11-03T09:03:08.257Z,96347.22
2022-11-03T09:05:35.059Z,96316.75
2022-11-03T09:10:48.888Z,96343.47
2022-11-03T09:13:15.454Z,96367.00
2022-11-03T09:15:41.993Z,96368.81
2022-11-03T09:18:08.919Z,96363.25
2022-11-03T09:20:35.735Z,96348.09
2022-11-03T09:23:02.358Z,96344.22
2022-11-03T09:25:29.142Z,96327.47
2022-11-03T09:27:55.817Z,96323.03
2022-11-03T09:30:22.376Z,96319.22
2022-11-03T09:32:48.964Z,96339.47
2022-11-03T09:35:16.562Z,96330.16
2022-11-03T09:37:43.732Z,96340.88
2022-11-03T09:40:13.776Z,96345.97
2022-11-03T09:42:41.264Z,96340.44
2022-11-03T09:45:09.815Z,96349.50
2022-11-03T09:47:40.360Z,96352.97
2022-11-03T09:50:13.829Z,96353.28
2022-11-03T09:52:51.732Z,96364.63
2022-11-03T09:55:26.031Z,96367.13
2022-11-03T09:57:59.418Z,96348.13
2022-11-03T10:00:27.356Z,96368.38
2022-11-03T10:02:54.745Z,96358.69
2022-11-03T10:05:28.690Z,96341.00
2022-11-03T10:07:59.427Z,96338.63
2022-11-03T10:10:26.773Z,96340.03
2022-11-03T10:12:53.637Z,96319.13
2022-11-03T10:15:24.472Z,96302.94
2022-11-03T10:17:51.989Z,96310.47
2022-11-03T10:20:22.173Z,96289.47
2022-11-03T10:22:53.261Z,96301.28
2022-11-03T10:25:42.101Z,96295.72
2022-11-03T10:28:14.923Z,96297.34
2022-11-03T10:33:40.687Z,96304.38
2022-11-03T10:36:23.679Z,96298.19
2022-11-03T10:38:50.392Z,96263.00
2022-11-03T10:41:16.937Z,96255.59
2022-11-03T10:43:45.618Z,96278.50
2022-11-03T10:49:15.718Z,96258.00
2022-11-03T10:51:44.199Z,96248.63
2022-11-03T10:54:14.755Z,96263.19
2022-11-03T10:56:42.224Z,96269.63
2022-11-03T10:59:20.784Z,96253.13
2022-11-03T11:01:47.645Z,96247.69
2022-11-03T11:04:19.415Z,96237.97
2022-11-03T11:06:47.053Z,96238.44
2022-11-03T11:09:25.885Z,96249.13
2022-11-03T11:12:07.459Z,96239.94
2022-11-03T11:14:50.917Z,96240.72
2022-11-03T11:17:41.587Z,96258.66
2022-11-03T11:20:23.917Z,96255.72
2022-11-03T11:22:51.024Z,96264.69
2022-11-03T11:25:21.028Z,96258.75
2022-11-03T11:27:54.152Z,96240.22
2022-11-03T11:30:46.988Z,96233.59
2022-11-03T11:33:23.176Z,96245.13
2022-11-03T11:35:49.646Z,96261.09
2022-11-03T11:39:04.461Z,96244.97
2022-11-03T11:42:09.432Z,96250.00
2022-11-03T11:44:45.987Z,96231.94
2022-11-03T11:47:21.685Z,96223.91
2022-11-03T11:49:48.730Z,96210.63
2022-11-03T11:52:19.225Z,96192.41
2022-11-03T11:54:46.163Z,96215.31
2022-11-03T11:57:20.282Z,96232.97
2022-11-03T11:59:49.005Z,96249.69
2022-11-03T12:02:24.238Z,96241.22
2022-11-03T12:05:03.736Z,96204.09
2022-11-03T12:07:36.952Z,96198.50
2022-11-03T12:10:14.802Z,96207.03
2022-11-03T12:12:41.465Z,96219.09
2022-11-03T12:15:47.200Z,96212.03
2022-11-03T12:18:32.806Z,96223.56
2022-11-03T12:21:03.604Z,96218.91
2022-11-03T12:23:48.283Z,96234.56
2022-11-03T12:26:17.833Z,96233.44
2022-11-03T12:28:44.893Z,96230.16
2022-11-03T12:31:12.689Z,96240.13
2022-11-03T12:33:39.673Z,96213.75
2022-11-03T12:36:07.227Z,96228.63
2022-11-03T12:38:33.954Z,96205.88
2022-11-03T12:41:20.798Z,96212.31
2022-11-03T12:43:49.083Z,96237.75
2022-11-03T12:46:20.573Z,96232.94
2022-11-03T12:48:48.249Z,96227.75
2022-11-03T12:51:17.109Z,96228.38
2022-11-03T12:53:44.558Z,96216.25
2022-11-03T12:56:12.920Z,96206.50
2022-11-03T12:58:39.830Z,96231.97
2022-11-03T13:01:07.468Z,96260.13
2022-11-03T13:03:35.301Z,96213.28
2022-11-03T13:06:04.718Z,96201.72
2022-11-03T13:08:31.785Z,96216.94
2022-11-03T13:10:58.384Z,96177.88
2022-11-03T13:13:25.970Z,96194.91
2022-11-03T13:15:55.882Z,96172.59
2022-11-03T13:18:25.295Z,96164.97
2022-11-03T13:20:51.824Z,96143.25
2022-11-03T13:23:20.472Z,96135.09
2022-11-03T13:25:49.766Z,96130.16
2022-11-03T13:28:16.488Z,96132.69
2022-11-03T13:30:43.034Z,96121.47
2022-11-03T13:33:10.025Z,96113.25
2022-11-03T13:35:36.971Z,96113.25
2022-11-03T13:38:03.639Z,96107.53
2022-11-03T13:43:17.061Z,96103.03
2022-11-03T13:45:43.753Z,96092.56
2022-11-03T13:49:07.468Z,96083.53
2022-11-03T13:50:57.332Z,96061.63
2022-11-03T13:56:16.908Z,95989.88
2022-11-03T14:01:35.856Z,95955.03
2022-11-03T14:06:49.683Z,95923.72
2022-11-03T14:09:16.246Z,95917.00
2022-11-03T14:12:01.849Z,95912.47
2022-11-03T14:14:28.530Z,95906.16
2022-11-03T14:16:55.330Z,95908.66
2022-11-03T14:19:30.795Z,95895.25
2022-11-03T14:22:00.538Z,95880.72
2022-11-03T14:24:27.868Z,95872.16
2022-11-03T14:26:54.557Z,95865.88
2022-11-03T14:29:21.318Z,95853.16
2022-11-03T14:31:48.080Z,95841.66
2022-11-03T14:34:14.658Z,95839.06
2022-11-03T14:36:41.511Z,95850.75
2022-11-03T14:39:08.139Z,95852.44
2022-11-03T14:41:53.411Z,95831.88
2022-11-03T14:44:20.085Z,95844.19
2022-11-03T14:46:46.638Z,95843.00
2022-11-03T14:49:13.304Z,95845.28
2022-11-03T14:51:39.940Z,95855.03
2022-11-03T14:54:06.617Z,95853.66
2022-11-03T14:56:33.241Z,95877.56
2022-11-03T14:58:59.769Z,95878.59
2022-11-03T15:01:26.445Z,95890.47
2022-11-03T15:03:53.192Z,95905.72
2022-11-03T15:06:19.792Z,95904.56
2022-11-03T15:08:49.740Z,95897.38
2022-11-03T15:11:18.639Z,95885.06
2022-11-03T15:13:47.226Z,95878.69
2022-11-03T15:16:16.481Z,95858.28
2022-11-03T15:18:44.572Z,95844.53
2022-11-03T15:21:11.521Z,95813.59
2022-11-03T15:26:25.201Z,95780.53
2022-11-03T15:28:51.818Z,95747.31
2022-11-03T15:31:18.434Z,95728.69
2022-11-03T15:33:45.089Z,95695.25
2022-11-03T15:36:12.238Z,95677.66
2022-11-03T15:38:38.880Z,95661.28
2022-11-03T15:41:23.542Z,95639.34
2022-11-03T15:43:50.645Z,95608.06
2022-11-03T15:46:18.651Z,95596.53
2022-11-03T15:48:45.964Z,95560.56
2022-11-03T15:51:12.754Z,95538.00
2022-11-03T15:53:39.995Z,95523.06
2022-11-03T15:56:07.490Z,95510.06
2022-11-03T15:58:34.668Z,95541.22
2022-11-03T16:01:05.247Z,95491.00
2022-11-03T16:03:32.333Z,95466.47
2022-11-03T16:05:59.340Z,95447.88
2022-11-03T16:08:25.997Z,95425.84
2022-11-03T16:10:57.621Z,95399.53
2022-11-03T16:13:25.127Z,95372.41
2022-11-03T16:15:53.160Z,95366.06
2022-11-03T16:18:20.390Z,95351.63
2022-11-03T16:20:47.065Z,95350.91
2022-11-03T16:23:13.732Z,95361.28
2022-11-03T16:25:40.582Z,95333.47
2022-11-03T16:28:08.520Z,95311.63
2022-11-03T16:30:35.400Z,95314.97
2022-11-03T16:33:02.166Z,95284.81
2022-11-03T16:35:29.763Z,95282.59
2022-11-03T16:37:56.650Z,95304.38
2022-11-03T16:40:23.781Z,95300.63
2022-11-03T16:42:50.659Z,95281.59
2022-11-03T16:45:22.691Z,95296.38
2022-11-03T16:47:50.669Z,95270.03
2022-11-03T16:50:18.615Z,95270.41
2022-11-03T16:52:49.382Z,95249.94
2022-11-03T16:55:17.589Z,95250.69
2022-11-03T16:57:45.609Z,95257.03
2022-11-03T17:00:17.778Z,95233.97
2022-11-03T17:02:44.882Z,95258.03
2022-11-03T17:05:12.613Z,95235.81
2022-11-03T17:07:39.316Z,95214.63
2022-11-03T17:10:07.814Z,95186.22
2022-11-03T17:12:34.496Z,95196.53
2022-11-03T17:15:01.043Z,95182.88
2022-11-03T17:17:27.745Z,95177.00
2022-11-03T17:19:54.421Z,95188.84
2022-11-03T17:22:24.408Z,95153.25
2022-11-03T17:24:51.068Z,95161.78
2022-11-03T17:27:28.339Z,95168.09
2022-11-03T17:29:59.398Z,95174.00
2022-11-03T17:32:28.162Z,95165.09
2022-11-03T17:34:55.795Z,95288.91
2022-11-03T17:37:23.851Z,95179.59
2022-11-03T17:39:51.016Z,95179.19
2022-11-03T17:42:26.241Z,95138.06
2022-11-03T17:44:55.503Z,95127.00
2022-11-03T17:47:23.156Z,95137.78
2022-11-03T17:49:50.548Z,95135.50
2022-11-03T17:52:25.059Z,95139.16
2022-11-03T17:54:57.463Z,95155.84
2022-11-03T17:57:25.550Z,95140.97
2022-11-03T17:59:59.117Z,95143.56
2022-11-03T18:02:27.957Z,95158.03
2022-11-03T18:05:15.353Z,95219.16
2022-11-03T18:07:45.347Z,95197.66
2022-11-03T18:10:12.016Z,95166.19
2022-11-03T18:13:01.837Z,95138.75
2022-11-03T18:15:31.009Z,95090.56
2022-11-03T18:17:57.588Z,95123.56
2022-11-03T18:20:27.821Z,95154.00
2022-11-03T18:22:57.545Z,95121.00
2022-11-03T18:25:24.139Z,95119.91
2022-11-03T18:27:50.695Z,95097.66
2022-11-03T18:30:17.842Z,95101.34
2022-11-03T18:32:45.750Z,95091.38
2022-11-03T18:35:22.551Z,95126.59
2022-11-03T18:37:50.066Z,95102.09
2022-11-03T18:40:16.915Z,95090.28
2022-11-03T18:42:43.564Z,95145.56
2022-11-03T18:45:13.237Z,95186.75
2022-11-03T18:47:40.302Z,95166.81
2022-11-03T18:50:07.737Z,95153.53
2022-11-03T18:52:41.049Z,95186.16
2022-11-03T18:55:12.184Z,95202.50
2022-11-03T18:57:39.641Z,95194.03
2022-11-03T19:00:15.661Z,95094.28
2022-11-03T19:02:42.370Z,95106.19
2022-11-03T19:05:13.430Z,95080.88
2022-11-03T19:07:42.284Z,95113.53
2022-11-03T19:10:12.473Z,95087.22
2022-11-03T19:12:40.491Z,95072.78
2022-11-03T19:15:10.283Z,95069.47
2022-11-03T19:17:36.896Z,95084.72
2022-11-03T19:20:13.301Z,95143.78
2022-11-03T19:22:41.044Z,95130.44
2022-11-03T19:25:08.315Z,95050.63
2022-11-03T19:27:38.076Z,95069.53
2022-11-03T19:30:06.410Z,95061.75
2022-11-03T19:32:40.322Z,95157.81
2022-11-03T19:35:08.325Z,95082.13
2022-11-03T19:37:36.277Z,95086.97
2022-11-03T19:40:08.769Z,95059.88
2022-11-03T19:42:38.236Z,95094.00
2022-11-03T19:45:08.345Z,95045.78
2022-11-03T19:47:41.785Z,95012.78
2022-11-03T19:50:21.013Z,95052.84
2022-11-03T19:52:50.938Z,95010.53
2022-11-03T19:55:19.208Z,95016.47
2022-11-03T19:57:45.751Z,95013.13
2022-11-03T20:00:17.511Z,95027.97
2022-11-03T20:02:44.788Z,95056.53
2022-11-03T20:05:15.197Z,95036.50
2022-11-03T20:07:43.455Z,95059.94
2022-11-03T20:10:16.464Z,95090.34
2022-11-03T20:12:44.660Z,95061.41
2022-11-03T20:15:19.757Z,95115.25
2022-11-03T20:17:47.726Z,95065.88
2022-11-03T20:20:16.427Z,95066.97
2022-11-03T20:22:46.602Z,95095.53
2022-11-03T20:25:20.951Z,95040.97
2022-11-03T20:27:48.238Z,95005.38
2022-11-03T20:30:17.391Z,95033.59
2022-11-03T20:32:46.223Z,95075.16
2022-11-03T20:35:23.025Z,95112.63
2022-11-03T20:37:53.039Z,95104.84
2022-11-03T20:40:22.706Z,95099.25
2022-11-03T20:42:52.312Z,95067.00
2022-11-03T20:45:21.196Z,95098.63
2022-11-03T20:47:49.345Z,95084.50
2022-11-03T20:50:17.970Z,95024.75
2022-11-03T20:52:46.921Z,95015.09
2022-11-03T20:55:25.103Z,95016.63
2022-11-03T20:57:53.098Z,95006.97
2022-11-03T21:00:22.866Z,95007.31
2022-11-03T21:02:49.952Z,95031.81
2022-11-03T21:05:18.272Z,95044.81
2022-11-03T21:07:45.765Z,95080.06
2022-11-03T21:10:20.226Z,95010.34
2022-11-03T21:12:47.374Z,95008.09
2022-11-03T21:15:37.617Z,95124.66
2022-11-03T21:18:34.544Z,95032.97
2022-11-03T21:21:01.966Z,95031.53
2022-11-03T21:23:30.411Z,95011.09
2022-11-03T21:25:57.612Z,94964.31
2022-11-03T21:28:24.876Z,94994.06
2022-11-03T21:30:53.497Z,95000.75
2022-11-03T21:33:21.256Z,95024.91
2022-11-03T21:35:49.210Z,95069.84
2022-11-03T21:38:17.471Z,95026.00
2022-11-03T21:40:45.846Z,95004.13
2022-11-03T21:43:31.662Z,95182.38
2022-11-03T21:46:09.347Z,95053.13
2022-11-03T21:48:55.536Z,95055.38
2022-11-03T21:51:22.517Z,95007.81
2022-11-03T21:53:49.935Z,95032.72
2022-11-03T21:56:17.326Z,95009.66
2022-11-03T21:58:44.231Z,95064.31
2022-11-03T22:01:10.952Z,95084.38
2022-11-03T22:03:38.983Z,95054.63
2022-11-03T22:06:08.282Z,95076.25
2022-11-03T22:08:35.613Z,95141.25
2022-11-03T22:11:21.990Z,95092.94
2022-11-03T22:13:55.189Z,95127.84
2022-11-03T22:16:38.241Z,95083.63
2022-11-03T22:19:25.298Z,95115.56
2022-11-03T22:22:11.093Z,95152.31
2022-11-03T22:24:56.661Z,95060.59
2022-11-03T22:27:23.554Z,95076.19
2022-11-03T22:30:08.782Z,95056.50
2022-11-03T22:32:36.347Z,95081.78
2022-11-03T22:35:23.040Z,95081.78
2022-11-03T22:38:03.665Z,95092.50
2022-11-03T22:40:48.809Z,95149.72
2022-11-03T22:43:41.183Z,95216.25
2022-11-03T22:46:09.420Z,95108.53
2022-11-03T22:48:36.460Z,95089.22
2022-11-03T22:51:11.517Z,95105.91
2022-11-03T22:53:56.623Z,95067.31
2022-11-03T22:56:24.870Z,95118.97
2022-11-03T22:58:51.759Z,95137.91
2022-11-03T23:01:22.946Z,95166.50
2022-11-03T23:03:49.984Z,95128.59
2022-11-03T23:06:19.180Z,95153.47
2022-11-03T23:08:47.373Z,95157.91
2022-11-03T23:11:20.059Z,95150.13
2022-11-03T23:13:55.075Z,95106.66
2022-11-03T23:16:24.597Z,95211.38
2022-11-03T23:19:09.848Z,95133.03
2022-11-03T23:21:36.591Z,95128.91
2022-11-03T23:24:22.919Z,95142.66
2022-11-03T23:26:49.719Z,95139.31
2022-11-03T23:29:17.241Z,95182.41
2022-11-03T23:31:45.053Z,95190.97
2022-11-03T23:34:13.094Z,95165.31
2022-11-03T23:36:39.844Z,95169.41
2022-11-03T23:39:06.496Z,95165.31
2022-11-03T23:41:33.540Z,95169.78
2022-11-03T23:44:00.105Z,95178.28
2022-11-03T23:46:47.339Z,95180.16
2022-11-03T23:49:14.512Z,95186.50
2022-11-03T23:51:42.153Z,95177.97
2022-11-03T23:54:10.977Z,95184.56
2022-11-03T23:56:58.366Z,95176.03
2022-11-03T23:59:25.849Z,95180.13
